sensor_id;sensor_type;location;lat;lon;timestamp;P1;durP1;ratioP1;P2;durP2;ratioP2
40537;SDS011;27925;41.874;12.526;2023-06-14T00:00:39;6.72;;;4.00;;
40537;SDS011;27925;41.874;12.526;2023-06-14T00:03:08;10.52;;;4.28;;
40537;SDS011;27925;41.874;12.526;2023-06-14T00:05:35;8.27;;;4.65;;
40537;SDS011;27925;41.874;12.526;2023-06-14T00:08:06;8.80;;;4.10;;
40537;SDS011;27925;41.874;12.526;2023-06-14T00:10:33;7.22;;;4.15;;
40537;SDS011;27925;41.874;12.526;2023-06-14T00:13:01;8.18;;;4.07;;
40537;SDS011;27925;41.874;12.526;2023-06-14T00:15:30;6.32;;;3.88;;
40537;SDS011;27925;41.874;12.526;2023-06-14T00:17:59;7.00;;;4.38;;
40537;SDS011;27925;41.874;12.526;2023-06-14T00:20:28;7.00;;;4.15;;
40537;SDS011;27925;41.874;12.526;2023-06-14T00:22:55;6.78;;;4.47;;
40537;SDS011;27925;41.874;12.526;2023-06-14T00:25:22;6.65;;;3.53;;
40537;SDS011;27925;41.874;12.526;2023-06-14T00:27:48;8.57;;;4.53;;
40537;SDS011;27925;41.874;12.526;2023-06-14T00:30:14;8.95;;;4.00;;
40537;SDS011;27925;41.874;12.526;2023-06-14T00:32:40;7.13;;;3.97;;
40537;SDS011;27925;41.874;12.526;2023-06-14T00:35:08;6.85;;;4.00;;
40537;SDS011;27925;41.874;12.526;2023-06-14T00:37:34;9.80;;;4.18;;
40537;SDS011;27925;41.874;12.526;2023-06-14T00:40:00;8.15;;;4.07;;
40537;SDS011;27925;41.874;12.526;2023-06-14T00:42:26;7.55;;;3.97;;
40537;SDS011;27925;41.874;12.526;2023-06-14T00:44:52;6.10;;;4.50;;
40537;SDS011;27925;41.874;12.526;2023-06-14T00:47:19;9.65;;;3.95;;
40537;SDS011;27925;41.874;12.526;2023-06-14T00:49:45;8.77;;;4.38;;
40537;SDS011;27925;41.874;12.526;2023-06-14T00:52:12;8.98;;;4.57;;
40537;SDS011;27925;41.874;12.526;2023-06-14T00:54:39;8.77;;;4.22;;
40537;SDS011;27925;41.874;12.526;2023-06-14T00:57:06;9.32;;;4.13;;
40537;SDS011;27925;41.874;12.526;2023-06-14T00:59:32;10.23;;;4.63;;
40537;SDS011;27925;41.874;12.526;2023-06-14T01:01:58;7.50;;;4.72;;
40537;SDS011;27925;41.874;12.526;2023-06-14T01:04:24;7.28;;;3.92;;
40537;SDS011;27925;41.874;12.526;2023-06-14T01:06:56;10.55;;;4.07;;
40537;SDS011;27925;41.874;12.526;2023-06-14T01:10:03;11.27;;;4.25;;
40537;SDS011;27925;41.874;12.526;2023-06-14T01:15:21;7.72;;;4.13;;
40537;SDS011;27925;41.874;12.526;2023-06-14T01:17:49;13.23;;;4.18;;
40537;SDS011;27925;41.874;12.526;2023-06-14T01:20:16;6.80;;;4.03;;
40537;SDS011;27925;41.874;12.526;2023-06-14T01:22:52;9.15;;;4.32;;
40537;SDS011;27925;41.874;12.526;2023-06-14T01:25:19;9.73;;;4.15;;
40537;SDS011;27925;41.874;12.526;2023-06-14T01:27:47;7.93;;;3.88;;
40537;SDS011;27925;41.874;12.526;2023-06-14T01:30:22;7.97;;;5.60;;
40537;SDS011;27925;41.874;12.526;2023-06-14T01:32:50;8.55;;;4.32;;
40537;SDS011;27925;41.874;12.526;2023-06-14T01:35:17;7.95;;;3.55;;
40537;SDS011;27925;41.874;12.526;2023-06-14T01:37:43;8.52;;;3.55;;
40537;SDS011;27925;41.874;12.526;2023-06-14T01:40:12;6.32;;;3.47;;
40537;SDS011;27925;41.874;12.526;2023-06-14T01:42:39;6.72;;;3.28;;
40537;SDS011;27925;41.874;12.526;2023-06-14T01:45:05;9.40;;;3.90;;
40537;SDS011;27925;41.874;12.526;2023-06-14T01:47:33;7.65;;;3.55;;
40537;SDS011;27925;41.874;12.526;2023-06-14T01:50:00;6.70;;;3.47;;
40537;SDS011;27925;41.874;12.526;2023-06-14T01:52:26;9.73;;;3.25;;
40537;SDS011;27925;41.874;12.526;2023-06-14T01:54:52;7.95;;;3.95;;
40537;SDS011;27925;41.874;12.526;2023-06-14T01:57:18;5.75;;;3.10;;
40537;SDS011;27925;41.874;12.526;2023-06-14T01:59:45;6.32;;;3.45;;
40537;SDS011;27925;41.874;12.526;2023-06-14T02:02:13;7.15;;;3.50;;
40537;SDS011;27925;41.874;12.526;2023-06-14T02:04:39;5.85;;;3.08;;
40537;SDS011;27925;41.874;12.526;2023-06-14T02:07:05;4.40;;;2.70;;
40537;SDS011;27925;41.874;12.526;2023-06-14T02:09:31;7.10;;;3.17;;
40537;SDS011;27925;41.874;12.526;2023-06-14T02:11:57;4.88;;;2.83;;
40537;SDS011;27925;41.874;12.526;2023-06-14T02:14:23;5.53;;;2.88;;
40537;SDS011;27925;41.874;12.526;2023-06-14T02:16:49;5.70;;;3.00;;
40537;SDS011;27925;41.874;12.526;2023-06-14T02:19:18;5.32;;;2.80;;
40537;SDS011;27925;41.874;12.526;2023-06-14T02:21:45;5.90;;;2.58;;
40537;SDS011;27925;41.874;12.526;2023-06-14T02:24:11;4.80;;;2.58;;
40537;SDS011;27925;41.874;12.526;2023-06-14T02:26:38;5.95;;;2.92;;
40537;SDS011;27925;41.874;12.526;2023-06-14T02:29:04;7.18;;;2.92;;
40537;SDS011;27925;41.874;12.526;2023-06-14T02:31:31;10.05;;;2.80;;
40537;SDS011;27925;41.874;12.526;2023-06-14T02:33:57;5.38;;;2.83;;
40537;SDS011;27925;41.874;12.526;2023-06-14T02:36:23;4.43;;;2.70;;
40537;SDS011;27925;41.874;12.526;2023-06-14T02:38:49;5.53;;;2.67;;
40537;SDS011;27925;41.874;12.526;2023-06-14T02:41:14;9.20;;;2.88;;
40537;SDS011;27925;41.874;12.526;2023-06-14T02:43:40;4.95;;;2.75;;
40537;SDS011;27925;41.874;12.526;2023-06-14T02:46:06;5.90;;;3.00;;
40537;SDS011;27925;41.874;12.526;2023-06-14T02:48:32;4.18;;;2.45;;
40537;SDS011;27925;41.874;12.526;2023-06-14T02:50:58;4.95;;;2.80;;
40537;SDS011;27925;41.874;12.526;2023-06-14T02:53:23;7.57;;;2.85;;
40537;SDS011;27925;41.874;12.526;2023-06-14T02:55:49;5.20;;;3.22;;
40537;SDS011;27925;41.874;12.526;2023-06-14T02:58:15;9.13;;;3.15;;
40537;SDS011;27925;41.874;12.526;2023-06-14T03:00:41;4.72;;;2.80;;
40537;SDS011;27925;41.874;12.526;2023-06-14T03:03:07;10.10;;;3.47;;
40537;SDS011;27925;41.874;12.526;2023-06-14T03:05:40;5.78;;;3.28;;
40537;SDS011;27925;41.874;12.526;2023-06-14T03:08:11;5.18;;;3.20;;
40537;SDS011;27925;41.874;12.526;2023-06-14T03:10:42;5.68;;;2.90;;
40537;SDS011;27925;41.874;12.526;2023-06-14T03:13:08;8.25;;;3.63;;
40537;SDS011;27925;41.874;12.526;2023-06-14T03:15:35;6.57;;;3.30;;
40537;SDS011;27925;41.874;12.526;2023-06-14T03:18:01;6.95;;;3.40;;
40537;SDS011;27925;41.874;12.526;2023-06-14T03:20:28;9.20;;;3.20;;
40537;SDS011;27925;41.874;12.526;2023-06-14T03:22:58;8.18;;;3.35;;
40537;SDS011;27925;41.874;12.526;2023-06-14T03:25:24;5.38;;;3.42;;
40537;SDS011;27925;41.874;12.526;2023-06-14T03:27:51;9.68;;;3.55;;
40537;SDS011;27925;41.874;12.526;2023-06-14T03:30:17;8.10;;;3.90;;
40537;SDS011;27925;41.874;12.526;2023-06-14T03:32:42;8.98;;;3.40;;
40537;SDS011;27925;41.874;12.526;2023-06-14T03:35:08;11.45;;;3.88;;
40537;SDS011;27925;41.874;12.526;2023-06-14T03:37:35;8.05;;;3.90;;
40537;SDS011;27925;41.874;12.526;2023-06-14T03:40:01;7.75;;;4.32;;
40537;SDS011;27925;41.874;12.526;2023-06-14T03:42:31;8.55;;;3.95;;
40537;SDS011;27925;41.874;12.526;2023-06-14T03:44:56;7.28;;;4.18;;
40537;SDS011;27925;41.874;12.526;2023-06-14T03:47:22;11.50;;;4.50;;
40537;SDS011;27925;41.874;12.526;2023-06-14T03:49:48;8.10;;;4.60;;
40537;SDS011;27925;41.874;12.526;2023-06-14T03:52:13;9.45;;;4.78;;
40537;SDS011;27925;41.874;12.526;2023-06-14T03:54:41;9.45;;;4.13;;
40537;SDS011;27925;41.874;12.526;2023-06-14T03:57:08;8.35;;;4.85;;
40537;SDS011;27925;41.874;12.526;2023-06-14T03:59:35;6.70;;;4.75;;
40537;SDS011;27925;41.874;12.526;2023-06-14T04:02:01;7.13;;;4.35;;
40537;SDS011;27925;41.874;12.526;2023-06-14T04:04:27;11.98;;;4.90;;
40537;SDS011;27925;41.874;12.526;2023-06-14T04:06:54;8.93;;;5.30;;
40537;SDS011;27925;41.874;12.526;2023-06-14T04:09:23;7.35;;;5.25;;
40537;SDS011;27925;41.874;12.526;2023-06-14T04:11:52;9.82;;;4.65;;
40537;SDS011;27925;41.874;12.526;2023-06-14T04:14:19;9.32;;;4.97;;
40537;SDS011;27925;41.874;12.526;2023-06-14T04:16:45;9.25;;;4.82;;
40537;SDS011;27925;41.874;12.526;2023-06-14T04:19:12;9.43;;;4.93;;
40537;SDS011;27925;41.874;12.526;2023-06-14T04:21:37;7.97;;;4.30;;
40537;SDS011;27925;41.874;12.526;2023-06-14T04:24:03;7.32;;;4.10;;
40537;SDS011;27925;41.874;12.526;2023-06-14T04:26:29;11.07;;;4.88;;
40537;SDS011;27925;41.874;12.526;2023-06-14T04:28:58;10.45;;;4.22;;
40537;SDS011;27925;41.874;12.526;2023-06-14T04:31:26;9.25;;;4.35;;
40537;SDS011;27925;41.874;12.526;2023-06-14T04:33:58;11.57;;;4.65;;
40537;SDS011;27925;41.874;12.526;2023-06-14T04:36:25;10.55;;;4.50;;
40537;SDS011;27925;41.874;12.526;2023-06-14T04:38:53;9.05;;;4.60;;
40537;SDS011;27925;41.874;12.526;2023-06-14T04:41:20;11.68;;;4.85;;
40537;SDS011;27925;41.874;12.526;2023-06-14T04:43:48;9.90;;;4.47;;
40537;SDS011;27925;41.874;12.526;2023-06-14T04:46:14;7.75;;;3.78;;
40537;SDS011;27925;41.874;12.526;2023-06-14T04:48:40;8.43;;;3.67;;
40537;SDS011;27925;41.874;12.526;2023-06-14T04:51:10;10.27;;;4.38;;
40537;SDS011;27925;41.874;12.526;2023-06-14T04:53:36;8.38;;;4.38;;
40537;SDS011;27925;41.874;12.526;2023-06-14T04:56:02;10.70;;;4.15;;
40537;SDS011;27925;41.874;12.526;2023-06-14T04:58:28;10.00;;;4.78;;
40537;SDS011;27925;41.874;12.526;2023-06-14T05:00:54;6.47;;;3.80;;
40537;SDS011;27925;41.874;12.526;2023-06-14T05:03:24;9.88;;;3.97;;
40537;SDS011;27925;41.874;12.526;2023-06-14T05:05:50;9.40;;;4.60;;
40537;SDS011;27925;41.874;12.526;2023-06-14T05:08:18;8.75;;;4.88;;
40537;SDS011;27925;41.874;12.526;2023-06-14T05:10:45;8.05;;;4.38;;
40537;SDS011;27925;41.874;12.526;2023-06-14T05:13:11;7.82;;;4.20;;
40537;SDS011;27925;41.874;12.526;2023-06-14T05:15:37;8.68;;;4.72;;
40537;SDS011;27925;41.874;12.526;2023-06-14T05:18:02;8.30;;;4.28;;
40537;SDS011;27925;41.874;12.526;2023-06-14T05:20:28;10.05;;;4.28;;
40537;SDS011;27925;41.874;12.526;2023-06-14T05:22:54;7.50;;;3.90;;
40537;SDS011;27925;41.874;12.526;2023-06-14T05:25:21;11.60;;;3.78;;
40537;SDS011;27925;41.874;12.526;2023-06-14T05:27:48;11.65;;;4.00;;
40537;SDS011;27925;41.874;12.526;2023-06-14T05:30:14;7.53;;;3.75;;
40537;SDS011;27925;41.874;12.526;2023-06-14T05:32:40;8.60;;;3.50;;
40537;SDS011;27925;41.874;12.526;2023-06-14T05:35:06;7.65;;;3.50;;
40537;SDS011;27925;41.874;12.526;2023-06-14T05:37:32;8.68;;;3.70;;
40537;SDS011;27925;41.874;12.526;2023-06-14T05:39:58;7.03;;;3.50;;
40537;SDS011;27925;41.874;12.526;2023-06-14T05:42:24;8.52;;;3.60;;
40537;SDS011;27925;41.874;12.526;2023-06-14T05:44:50;8.32;;;3.58;;
40537;SDS011;27925;41.874;12.526;2023-06-14T05:47:15;9.95;;;3.90;;
40537;SDS011;27925;41.874;12.526;2023-06-14T05:49:41;7.85;;;3.45;;
40537;SDS011;27925;41.874;12.526;2023-06-14T05:52:07;5.63;;;3.28;;
40537;SDS011;27925;41.874;12.526;2023-06-14T05:54:33;8.90;;;4.22;;
40537;SDS011;27925;41.874;12.526;2023-06-14T05:56:59;10.48;;;3.28;;
40537;SDS011;27925;41.874;12.526;2023-06-14T05:59:26;9.07;;;3.83;;
40537;SDS011;27925;41.874;12.526;2023-06-14T06:01:52;7.25;;;3.38;;
40537;SDS011;27925;41.874;12.526;2023-06-14T06:04:18;9.75;;;3.85;;
40537;SDS011;27925;41.874;12.526;2023-06-14T06:06:44;11.05;;;3.67;;
40537;SDS011;27925;41.874;12.526;2023-06-14T06:09:10;8.15;;;3.78;;
40537;SDS011;27925;41.874;12.526;2023-06-14T06:11:36;6.22;;;3.58;;
40537;SDS011;27925;41.874;12.526;2023-06-14T06:14:01;10.60;;;3.63;;
40537;SDS011;27925;41.874;12.526;2023-06-14T06:16:27;8.35;;;3.47;;
40537;SDS011;27925;41.874;12.526;2023-06-14T06:18:53;8.27;;;3.80;;
40537;SDS011;27925;41.874;12.526;2023-06-14T06:21:19;11.68;;;4.13;;
40537;SDS011;27925;41.874;12.526;2023-06-14T06:23:44;10.43;;;3.63;;
40537;SDS011;27925;41.874;12.526;2023-06-14T06:26:10;4.85;;;3.20;;
40537;SDS011;27925;41.874;12.526;2023-06-14T06:28:36;6.65;;;3.10;;
40537;SDS011;27925;41.874;12.526;2023-06-14T06:31:01;9.05;;;3.50;;
40537;SDS011;27925;41.874;12.526;2023-06-14T06:33:28;11.05;;;3.85;;
40537;SDS011;27925;41.874;12.526;2023-06-14T06:35:53;8.75;;;4.05;;
40537;SDS011;27925;41.874;12.526;2023-06-14T06:38:19;8.32;;;4.15;;
40537;SDS011;27925;41.874;12.526;2023-06-14T06:40:45;9.27;;;3.92;;
40537;SDS011;27925;41.874;12.526;2023-06-14T06:43:10;6.63;;;3.78;;
40537;SDS011;27925;41.874;12.526;2023-06-14T06:45:38;9.75;;;4.70;;
40537;SDS011;27925;41.874;12.526;2023-06-14T06:48:05;12.25;;;3.88;;
40537;SDS011;27925;41.874;12.526;2023-06-14T06:50:31;11.05;;;3.70;;
40537;SDS011;27925;41.874;12.526;2023-06-14T06:52:57;7.45;;;3.72;;
40537;SDS011;27925;41.874;12.526;2023-06-14T06:55:22;11.65;;;4.10;;
40537;SDS011;27925;41.874;12.526;2023-06-14T06:57:48;13.35;;;4.53;;
40537;SDS011;27925;41.874;12.526;2023-06-14T07:00:15;11.50;;;3.72;;
40537;SDS011;27925;41.874;12.526;2023-06-14T07:02:42;8.40;;;3.17;;
40537;SDS011;27925;41.874;12.526;2023-06-14T07:05:08;14.13;;;4.03;;
40537;SDS011;27925;41.874;12.526;2023-06-14T07:07:34;12.48;;;4.00;;
40537;SDS011;27925;41.874;12.526;2023-06-14T07:10:00;11.57;;;4.25;;
40537;SDS011;27925;41.874;12.526;2023-06-14T07:12:29;10.27;;;3.42;;
40537;SDS011;27925;41.874;12.526;2023-06-14T07:14:56;9.55;;;3.83;;
40537;SDS011;27925;41.874;12.526;2023-06-14T07:17:22;12.77;;;3.15;;
40537;SDS011;27925;41.874;12.526;2023-06-14T07:19:48;7.95;;;3.28;;
40537;SDS011;27925;41.874;12.526;2023-06-14T07:22:13;10.77;;;3.80;;
40537;SDS011;27925;41.874;12.526;2023-06-14T07:24:39;9.30;;;3.60;;
40537;SDS011;27925;41.874;12.526;2023-06-14T07:27:05;11.23;;;3.80;;
40537;SDS011;27925;41.874;12.526;2023-06-14T07:29:32;16.33;;;5.32;;
40537;SDS011;27925;41.874;12.526;2023-06-14T07:31:58;9.57;;;3.35;;
40537;SDS011;27925;41.874;12.526;2023-06-14T07:34:23;5.97;;;3.08;;
40537;SDS011;27925;41.874;12.526;2023-06-14T07:36:49;9.82;;;3.33;;
40537;SDS011;27925;41.874;12.526;2023-06-14T07:39:16;7.63;;;3.15;;
40537;SDS011;27925;41.874;12.526;2023-06-14T07:41:41;6.80;;;2.53;;
40537;SDS011;27925;41.874;12.526;2023-06-14T07:44:07;14.07;;;3.17;;
40537;SDS011;27925;41.874;12.526;2023-06-14T07:46:33;9.32;;;2.80;;
40537;SDS011;27925;41.874;12.526;2023-06-14T07:48:59;9.00;;;3.85;;
40537;SDS011;27925;41.874;12.526;2023-06-14T07:51:25;7.43;;;3.08;;
40537;SDS011;27925;41.874;12.526;2023-06-14T07:53:51;10.73;;;3.15;;
40537;SDS011;27925;41.874;12.526;2023-06-14T07:56:16;8.48;;;3.00;;
40537;SDS011;27925;41.874;12.526;2023-06-14T07:58:42;7.97;;;3.08;;
40537;SDS011;27925;41.874;12.526;2023-06-14T08:01:08;8.60;;;3.50;;
40537;SDS011;27925;41.874;12.526;2023-06-14T08:03:35;10.07;;;3.63;;
40537;SDS011;27925;41.874;12.526;2023-06-14T08:06:00;12.18;;;3.17;;
40537;SDS011;27925;41.874;12.526;2023-06-14T08:08:26;13.38;;;3.47;;
40537;SDS011;27925;41.874;12.526;2023-06-14T08:10:52;10.90;;;3.67;;
40537;SDS011;27925;41.874;12.526;2023-06-14T08:13:18;7.15;;;2.80;;
40537;SDS011;27925;41.874;12.526;2023-06-14T08:15:43;9.15;;;3.75;;
40537;SDS011;27925;41.874;12.526;2023-06-14T08:18:10;10.38;;;3.58;;
40537;SDS011;27925;41.874;12.526;2023-06-14T08:20:36;9.77;;;3.90;;
40537;SDS011;27925;41.874;12.526;2023-06-14T08:23:02;7.28;;;3.30;;
40537;SDS011;27925;41.874;12.526;2023-06-14T08:25:29;10.00;;;3.53;;
40537;SDS011;27925;41.874;12.526;2023-06-14T08:27:55;7.35;;;3.20;;
40537;SDS011;27925;41.874;12.526;2023-06-14T08:30:21;6.18;;;3.17;;
40537;SDS011;27925;41.874;12.526;2023-06-14T08:32:47;9.05;;;4.18;;
40537;SDS011;27925;41.874;12.526;2023-06-14T08:35:12;9.93;;;4.38;;
40537;SDS011;27925;41.874;12.526;2023-06-14T08:37:42;7.30;;;3.08;;
40537;SDS011;27925;41.874;12.526;2023-06-14T08:40:20;8.73;;;3.00;;
40537;SDS011;27925;41.874;12.526;2023-06-14T08:42:50;8.18;;;3.10;;
40537;SDS011;27925;41.874;12.526;2023-06-14T08:45:17;11.43;;;4.43;;
40537;SDS011;27925;41.874;12.526;2023-06-14T08:47:45;10.38;;;3.10;;
40537;SDS011;27925;41.874;12.526;2023-06-14T08:50:17;6.95;;;2.80;;
40537;SDS011;27925;41.874;12.526;2023-06-14T08:52:48;8.15;;;3.40;;
40537;SDS011;27925;41.874;12.526;2023-06-14T08:55:18;7.93;;;3.88;;
40537;SDS011;27925;41.874;12.526;2023-06-14T08:57:45;9.98;;;3.75;;
40537;SDS011;27925;41.874;12.526;2023-06-14T09:00:13;5.22;;;2.75;;
40537;SDS011;27925;41.874;12.526;2023-06-14T09:02:39;4.95;;;2.92;;
40537;SDS011;27925;41.874;12.526;2023-06-14T09:05:11;6.00;;;3.08;;
40537;SDS011;27925;41.874;12.526;2023-06-14T09:07:39;7.63;;;2.63;;
40537;SDS011;27925;41.874;12.526;2023-06-14T09:10:11;8.32;;;3.03;;
40537;SDS011;27925;41.874;12.526;2023-06-14T09:12:38;6.63;;;3.20;;
40537;SDS011;27925;41.874;12.526;2023-06-14T09:15:07;5.93;;;2.85;;
40537;SDS011;27925;41.874;12.526;2023-06-14T09:17:37;5.80;;;3.00;;
40537;SDS011;27925;41.874;12.526;2023-06-14T09:20:04;5.38;;;2.97;;
40537;SDS011;27925;41.874;12.526;2023-06-14T09:22:31;6.25;;;3.63;;
40537;SDS011;27925;41.874;12.526;2023-06-14T09:24:58;7.47;;;3.10;;
40537;SDS011;27925;41.874;12.526;2023-06-14T09:27:28;11.93;;;4.65;;
40537;SDS011;27925;41.874;12.526;2023-06-14T09:29:54;9.27;;;3.53;;
40537;SDS011;27925;41.874;12.526;2023-06-14T09:32:23;8.65;;;3.30;;
40537;SDS011;27925;41.874;12.526;2023-06-14T09:34:50;6.20;;;3.30;;
40537;SDS011;27925;41.874;12.526;2023-06-14T09:37:28;4.90;;;2.70;;
40537;SDS011;27925;41.874;12.526;2023-06-14T09:39:55;6.65;;;3.10;;
40537;SDS011;27925;41.874;12.526;2023-06-14T09:42:21;5.35;;;2.70;;
40537;SDS011;27925;41.874;12.526;2023-06-14T09:44:51;9.57;;;4.05;;
40537;SDS011;27925;41.874;12.526;2023-06-14T09:47:21;7.72;;;3.92;;
40537;SDS011;27925;41.874;12.526;2023-06-14T09:49:50;6.15;;;3.28;;
40537;SDS011;27925;41.874;12.526;2023-06-14T09:52:20;9.98;;;4.20;;
40537;SDS011;27925;41.874;12.526;2023-06-14T09:54:47;5.53;;;3.22;;
40537;SDS011;27925;41.874;12.526;2023-06-14T09:57:21;5.45;;;3.13;;
40537;SDS011;27925;41.874;12.526;2023-06-14T09:59:48;6.47;;;3.58;;
40537;SDS011;27925;41.874;12.526;2023-06-14T10:04:46;10.70;;;4.53;;
40537;SDS011;27925;41.874;12.526;2023-06-14T10:07:16;9.20;;;3.85;;
40537;SDS011;27925;41.874;12.526;2023-06-14T10:09:45;7.53;;;3.33;;
40537;SDS011;27925;41.874;12.526;2023-06-14T10:12:16;5.90;;;2.85;;
40537;SDS011;27925;41.874;12.526;2023-06-14T10:14:49;6.00;;;3.53;;
40537;SDS011;27925;41.874;12.526;2023-06-14T10:18:01;5.80;;;2.85;;
40537;SDS011;27925;41.874;12.526;2023-06-14T10:20:10;6.35;;;2.83;;
40537;SDS011;27925;41.874;12.526;2023-06-14T10:22:44;5.97;;;2.75;;
40537;SDS011;27925;41.874;12.526;2023-06-14T10:25:28;5.28;;;2.58;;
40537;SDS011;27925;41.874;12.526;2023-06-14T10:31:01;6.00;;;2.95;;
40537;SDS011;27925;41.874;12.526;2023-06-14T10:33:35;5.75;;;2.53;;
40537;SDS011;27925;41.874;12.526;2023-06-14T10:36:07;5.75;;;2.97;;
40537;SDS011;27925;41.874;12.526;2023-06-14T10:38:34;7.95;;;3.75;;
40537;SDS011;27925;41.874;12.526;2023-06-14T10:41:02;6.47;;;3.30;;
40537;SDS011;27925;41.874;12.526;2023-06-14T10:43:29;8.38;;;3.10;;
40537;SDS011;27925;41.874;12.526;2023-06-14T10:46:14;10.32;;;4.20;;
40537;SDS011;27925;41.874;12.526;2023-06-14T10:48:43;6.68;;;3.10;;
40537;SDS011;27925;41.874;12.526;2023-06-14T10:51:18;6.95;;;3.20;;
40537;SDS011;27925;41.874;12.526;2023-06-14T10:53:49;8.20;;;3.83;;
40537;SDS011;27925;41.874;12.526;2023-06-14T10:56:28;5.47;;;3.20;;
40537;SDS011;27925;41.874;12.526;2023-06-14T10:58:57;5.93;;;2.90;;
40537;SDS011;27925;41.874;12.526;2023-06-14T11:01:35;6.82;;;3.38;;
40537;SDS011;27925;41.874;12.526;2023-06-14T11:04:20;7.35;;;3.30;;
40537;SDS011;27925;41.874;12.526;2023-06-14T11:06:48;7.03;;;3.05;;
40537;SDS011;27925;41.874;12.526;2023-06-14T11:09:25;9.27;;;3.53;;
40537;SDS011;27925;41.874;12.526;2023-06-14T11:12:03;6.97;;;2.88;;
40537;SDS011;27925;41.874;12.526;2023-06-14T11:14:30;9.07;;;2.80;;
40537;SDS011;27925;41.874;12.526;2023-06-14T11:16:56;7.22;;;2.90;;
40537;SDS011;27925;41.874;12.526;2023-06-14T11:19:22;5.80;;;2.97;;
40537;SDS011;27925;41.874;12.526;2023-06-14T11:21:48;5.63;;;2.72;;
40537;SDS011;27925;41.874;12.526;2023-06-14T11:24:14;6.85;;;3.45;;
40537;SDS011;27925;41.874;12.526;2023-06-14T11:26:40;5.15;;;2.33;;
40537;SDS011;27925;41.874;12.526;2023-06-14T11:29:05;5.90;;;2.85;;
40537;SDS011;27925;41.874;12.526;2023-06-14T11:31:31;6.57;;;3.05;;
40537;SDS011;27925;41.874;12.526;2023-06-14T11:33:57;5.68;;;2.67;;
40537;SDS011;27925;41.874;12.526;2023-06-14T11:36:28;5.78;;;3.17;;
40537;SDS011;27925;41.874;12.526;2023-06-14T11:39:05;9.50;;;3.58;;
40537;SDS011;27925;41.874;12.526;2023-06-14T11:44:10;9.27;;;4.22;;
40537;SDS011;27925;41.874;12.526;2023-06-14T11:46:36;11.23;;;4.00;;
40537;SDS011;27925;41.874;12.526;2023-06-14T11:49:03;5.88;;;3.28;;
40537;SDS011;27925;41.874;12.526;2023-06-14T11:51:30;8.23;;;3.33;;
40537;SDS011;27925;41.874;12.526;2023-06-14T11:53:57;9.90;;;4.35;;
40537;SDS011;27925;41.874;12.526;2023-06-14T11:56:23;11.75;;;4.35;;
40537;SDS011;27925;41.874;12.526;2023-06-14T11:58:50;10.05;;;4.90;;
40537;SDS011;27925;41.874;12.526;2023-06-14T12:01:17;10.00;;;3.97;;
40537;SDS011;27925;41.874;12.526;2023-06-14T12:03:53;10.00;;;3.95;;
40537;SDS011;27925;41.874;12.526;2023-06-14T12:06:30;7.88;;;3.28;;
40537;SDS011;27925;41.874;12.526;2023-06-14T12:09:03;5.63;;;3.20;;
40537;SDS011;27925;41.874;12.526;2023-06-14T12:11:32;5.18;;;2.63;;
40537;SDS011;27925;41.874;12.526;2023-06-14T12:13:59;5.57;;;3.00;;
40537;SDS011;27925;41.874;12.526;2023-06-14T12:16:29;5.97;;;2.65;;
40537;SDS011;27925;41.874;12.526;2023-06-14T12:18:59;6.18;;;2.88;;
40537;SDS011;27925;41.874;12.526;2023-06-14T12:21:27;4.63;;;2.83;;
40537;SDS011;27925;41.874;12.526;2023-06-14T12:23:54;8.65;;;3.00;;
40537;SDS011;27925;41.874;12.526;2023-06-14T12:26:20;6.40;;;2.50;;
40537;SDS011;27925;41.874;12.526;2023-06-14T12:28:46;6.68;;;3.55;;
40537;SDS011;27925;41.874;12.526;2023-06-14T12:31:13;6.28;;;2.78;;
40537;SDS011;27925;41.874;12.526;2023-06-14T12:33:40;6.22;;;2.50;;
40537;SDS011;27925;41.874;12.526;2023-06-14T12:36:06;5.57;;;2.70;;
40537;SDS011;27925;41.874;12.526;2023-06-14T12:38:33;5.35;;;2.80;;
40537;SDS011;27925;41.874;12.526;2023-06-14T12:40:59;7.32;;;2.72;;
40537;SDS011;27925;41.874;12.526;2023-06-14T12:43:25;5.15;;;2.65;;
40537;SDS011;27925;41.874;12.526;2023-06-14T12:45:51;5.63;;;2.60;;
40537;SDS011;27925;41.874;12.526;2023-06-14T12:48:17;5.38;;;2.50;;
40537;SDS011;27925;41.874;12.526;2023-06-14T12:50:42;5.40;;;2.65;;
40537;SDS011;27925;41.874;12.526;2023-06-14T12:53:08;5.43;;;3.05;;
40537;SDS011;27925;41.874;12.526;2023-06-14T12:55:34;5.63;;;3.03;;
40537;SDS011;27925;41.874;12.526;2023-06-14T12:58:00;8.88;;;2.80;;
40537;SDS011;27925;41.874;12.526;2023-06-14T13:00:26;6.35;;;2.95;;
40537;SDS011;27925;41.874;12.526;2023-06-14T13:02:51;6.53;;;2.80;;
40537;SDS011;27925;41.874;12.526;2023-06-14T13:05:18;5.22;;;2.70;;
40537;SDS011;27925;41.874;12.526;2023-06-14T13:07:44;6.95;;;3.05;;
40537;SDS011;27925;41.874;12.526;2023-06-14T13:10:10;5.95;;;3.13;;
40537;SDS011;27925;41.874;12.526;2023-06-14T13:12:36;5.05;;;2.40;;
40537;SDS011;27925;41.874;12.526;2023-06-14T13:15:02;6.93;;;3.00;;
40537;SDS011;27925;41.874;12.526;2023-06-14T13:17:28;6.75;;;2.97;;
40537;SDS011;27925;41.874;12.526;2023-06-14T13:19:53;6.43;;;2.92;;
40537;SDS011;27925;41.874;12.526;2023-06-14T13:22:19;8.40;;;3.15;;
40537;SDS011;27925;41.874;12.526;2023-06-14T13:24:45;6.05;;;2.75;;
40537;SDS011;27925;41.874;12.526;2023-06-14T13:27:11;10.07;;;3.30;;
40537;SDS011;27925;41.874;12.526;2023-06-14T13:29:39;7.32;;;3.50;;
40537;SDS011;27925;41.874;12.526;2023-06-14T13:32:05;7.20;;;3.25;;
40537;SDS011;27925;41.874;12.526;2023-06-14T13:34:31;8.52;;;3.20;;
40537;SDS011;27925;41.874;12.526;2023-06-14T13:36:56;8.13;;;3.15;;
40537;SDS011;27925;41.874;12.526;2023-06-14T13:39:24;8.18;;;3.33;;
40537;SDS011;27925;41.874;12.526;2023-06-14T13:41:50;6.88;;;3.00;;
40537;SDS011;27925;41.874;12.526;2023-06-14T13:44:16;7.57;;;3.10;;
40537;SDS011;27925;41.874;12.526;2023-06-14T13:46:44;9.77;;;3.90;;
40537;SDS011;27925;41.874;12.526;2023-06-14T13:49:09;17.23;;;4.40;;
40537;SDS011;27925;41.874;12.526;2023-06-14T13:51:35;7.68;;;3.65;;
40537;SDS011;27925;41.874;12.526;2023-06-14T13:56:31;9.77;;;4.55;;
40537;SDS011;27925;41.874;12.526;2023-06-14T13:58:57;9.90;;;4.28;;
40537;SDS011;27925;41.874;12.526;2023-06-14T14:01:23;8.60;;;4.35;;
40537;SDS011;27925;41.874;12.526;2023-06-14T14:03:49;8.13;;;3.85;;
40537;SDS011;27925;41.874;12.526;2023-06-14T14:06:15;7.95;;;4.20;;
40537;SDS011;27925;41.874;12.526;2023-06-14T14:08:41;6.80;;;3.90;;
40537;SDS011;27925;41.874;12.526;2023-06-14T14:11:07;6.68;;;4.10;;
40537;SDS011;27925;41.874;12.526;2023-06-14T14:13:34;6.43;;;3.83;;
40537;SDS011;27925;41.874;12.526;2023-06-14T14:16:04;7.95;;;4.28;;
40537;SDS011;27925;41.874;12.526;2023-06-14T14:18:31;6.25;;;4.18;;
40537;SDS011;27925;41.874;12.526;2023-06-14T14:20:57;5.65;;;3.42;;
40537;SDS011;27925;41.874;12.526;2023-06-14T14:23:24;5.82;;;3.38;;
40537;SDS011;27925;41.874;12.526;2023-06-14T14:25:49;6.78;;;4.28;;
40537;SDS011;27925;41.874;12.526;2023-06-14T14:28:15;7.55;;;3.90;;
40537;SDS011;27925;41.874;12.526;2023-06-14T14:30:43;7.88;;;3.88;;
40537;SDS011;27925;41.874;12.526;2023-06-14T14:33:09;6.90;;;3.50;;
40537;SDS011;27925;41.874;12.526;2023-06-14T14:35:40;6.30;;;3.20;;
40537;SDS011;27925;41.874;12.526;2023-06-14T14:38:07;7.35;;;3.10;;
40537;SDS011;27925;41.874;12.526;2023-06-14T14:40:33;6.05;;;3.15;;
40537;SDS011;27925;41.874;12.526;2023-06-14T14:42:59;5.95;;;3.30;;
40537;SDS011;27925;41.874;12.526;2023-06-14T14:45:25;6.30;;;3.42;;
40537;SDS011;27925;41.874;12.526;2023-06-14T14:47:51;5.72;;;3.72;;